Time;durP1;ratioP1;P1;durP2;ratioP2;P2;SDS_P1;SDS_P2;PMS_P1;PMS_P2;Temp;Humidity;BMP_temperature;BMP_pressure;BME280_temperature;BME280_humidity;BME280_pressure;Samples;Min_cycle;Max_cycle;Signal;HPM_P1;HPM_P2
2022/08/21 00:00:21;;;;;;;26.40;7.00;;;;;;;22.22;67.37;99049.05;1742037;82;20947;-43
2022/08/21 00:02:55;;;;;;;26.48;7.67;;;;;;;22.18;67.47;99047.63;1741692;82;21585;-42
2022/08/21 00:05:23;;;;;;;26.57;7.05;;;;;;;22.11;67.60;99045.89;1741549;82;21019;-42
2022/08/21 00:07:51;;;;;;;25.85;6.72;;;;;;;22.08;67.76;99044.00;1742076;82;21093;-42
2022/08/21 00:10:19;;;;;;;27.60;7.80;;;;;;;22.10;67.74;99051.23;1742066;82;20963;-43
2022/08/21 00:12:48;;;;;;;26.87;7.62;;;;;;;22.08;67.73;99055.81;1741848;82;21034;-42
2022/08/21 00:15:20;;;;;;;25.43;6.85;;;;;;;22.04;67.76;99060.69;1742093;82;21027;-42
2022/08/21 00:17:47;;;;;;;26.12;7.65;;;;;;;21.97;67.96;99056.79;1742045;82;21314;-42
2022/08/21 00:20:14;;;;;;;28.20;7.22;;;;;;;21.93;68.06;99058.87;1742001;82;21522;-42
2022/08/21 00:22:41;;;;;;;28.05;6.90;;;;;;;21.89;68.14;99066.46;1742014;82;21071;-42
2022/08/21 00:25:09;;;;;;;27.70;6.92;;;;;;;21.90;68.17;99050.67;1741864;82;20908;-42
2022/08/21 00:27:38;;;;;;;25.85;7.58;;;;;;;21.91;68.14;99062.66;1741741;82;21602;-42
2022/08/21 00:30:07;;;;;;;21.95;6.80;;;;;;;21.87;68.27;99052.35;1741821;82;21014;-43
2022/08/21 00:32:36;;;;;;;32.50;8.10;;;;;;;21.84;68.38;99056.58;1742183;82;21828;-43
2022/08/21 00:35:07;;;;;;;26.27;7.25;;;;;;;21.81;68.44;99056.87;1721178;82;21047;-42
2022/08/21 00:37:34;;;;;;;31.23;7.20;;;;;;;21.80;68.53;99061.45;1741860;82;20983;-42
2022/08/21 00:40:03;;;;;;;20.35;7.37;;;;;;;21.81;68.51;99056.87;1741810;82;21074;-42
2022/08/21 00:42:30;;;;;;;21.10;7.47;;;;;;;21.83;68.50;99043.42;1742258;82;21028;-42
2022/08/21 00:44:57;;;;;;;23.27;7.37;;;;;;;21.83;68.60;99040.66;1741686;82;23209;-42
2022/08/21 00:47:24;;;;;;;30.95;8.15;;;;;;;21.83;68.52;99042.64;1741853;82;21573;-43
2022/08/21 00:49:52;;;;;;;29.02;7.17;;;;;;;21.79;68.56;99038.59;1741829;82;21037;-42
2022/08/21 00:52:22;;;;;;;29.23;7.05;;;;;;;21.77;68.62;99038.28;1741770;82;21599;-42
2022/08/21 00:54:49;;;;;;;18.85;7.08;;;;;;;21.81;68.62;99043.68;1741748;82;21054;-42
2022/08/21 00:57:21;;;;;;;23.67;7.12;;;;;;;21.85;68.54;99038.20;1742274;82;21107;-42
2022/08/21 00:59:49;;;;;;;23.42;8.15;;;;;;;21.84;68.46;99040.80;1741892;82;20979;-43
2022/08/21 01:02:17;;;;;;;28.50;7.60;;;;;;;21.80;68.48;99049.03;1742238;82;20995;-42
2022/08/21 01:04:44;;;;;;;28.95;7.72;;;;;;;21.77;68.54;99059.58;1741994;82;21051;-42
2022/08/21 01:07:12;;;;;;;18.62;6.78;;;;;;;21.74;68.54;99054.32;1742035;82;21055;-42
2022/08/21 01:09:40;;;;;;;25.23;7.00;;;;;;;21.74;68.53;99044.66;1742039;82;21091;-42
2022/08/21 01:12:09;;;;;;;26.20;7.47;;;;;;;21.74;68.60;99050.19;1741972;82;20904;-42
2022/08/21 01:14:36;;;;;;;24.63;7.22;;;;;;;21.73;68.61;99048.66;1737420;82;20987;-43
2022/08/21 01:17:03;;;;;;;28.15;8.13;;;;;;;21.72;68.56;99055.39;1741991;82;21039;-42
2022/08/21 01:19:30;;;;;;;27.37;7.67;;;;;;;21.68;68.58;99054.13;1742035;82;21533;-42
2022/08/21 01:21:59;;;;;;;23.65;6.83;;;;;;;21.67;68.59;99055.34;1742015;82;21209;-42
2022/08/21 01:24:28;;;;;;;26.40;7.53;;;;;;;21.72;68.50;99049.09;1741551;82;21495;-42
2022/08/21 01:26:55;;;;;;;29.92;8.25;;;;;;;21.73;68.37;99051.42;1741884;82;21046;-42
2022/08/21 01:29:40;;;;;;;20.45;7.37;;;;;;;21.73;68.31;99055.56;1741696;82;21584;-42
2022/08/21 01:32:11;;;;;;;25.77;7.35;;;;;;;21.73;68.24;99056.16;1742585;82;21033;-42
2022/08/21 01:34:41;;;;;;;27.48;7.08;;;;;;;21.67;68.29;99059.47;1707862;84;21208;-42
2022/08/21 01:37:08;;;;;;;;;;;;;;;21.64;68.34;99053.44;1745935;82;21512;-42
2022/08/21 01:39:35;;;;;;;26.33;7.20;;;;;;;21.66;68.31;99057.14;1743490;81;20506;-42
2022/08/21 01:42:03;;;;;;;30.95;7.42;;;;;;;21.56;68.50;99061.78;1743440;81;21010;-42
2022/08/21 01:44:30;;;;;;;25.05;7.55;;;;;;;21.55;68.55;99055.31;1707591;83;21013;-42
2022/08/21 01:47:00;;;;;;;36.23;8.13;;;;;;;21.52;68.59;99050.09;1707868;84;21236;-42
2022/08/21 01:49:27;;;;;;;25.77;7.35;;;;;;;21.50;68.60;99055.25;1753531;81;20980;-42
2022/08/21 01:51:54;;;;;;;25.55;6.75;;;;;;;21.47;68.75;99060.89;1756808;81;20986;-42
2022/08/21 01:54:21;;;;;;;31.40;8.13;;;;;;;21.48;68.76;99047.27;1720494;83;21597;-42
2022/08/21 01:56:51;;;;;;;27.75;7.65;;;;;;;21.47;68.80;99042.95;1720738;83;21036;-42
2022/08/21 01:59:18;;;;;;;23.73;7.33;;;;;;;21.45;68.88;99048.91;1716261;83;21781;-42
2022/08/21 02:01:45;;;;;;;29.37;6.97;;;;;;;21.43;68.95;99047.81;1720396;83;20924;-42
2022/08/21 02:04:13;;;;;;;27.40;7.03;;;;;;;21.39;68.98;99049.31;1720804;83;20999;-42
2022/08/21 02:06:42;;;;;;;28.83;6.65;;;;;;;21.36;69.14;99050.17;1720482;83;21036;-42
2022/08/21 02:09:10;;;;;;;25.12;7.20;;;;;;;21.39;69.14;99045.77;1720980;83;21027;-42
2022/08/21 02:11:40;;;;;;;24.52;6.92;;;;;;;21.40;69.16;99044.54;1720690;83;21192;-42
2022/08/21 02:14:11;;;;;;;;;;;;;;;21.39;69.22;99045.77;1723168;83;21562;-42
2022/08/21 02:16:38;;;;;;;24.90;7.17;;;;;;;21.37;69.26;99042.67;1702349;84;20181;-42
2022/08/21 02:19:07;;;;;;;27.62;6.85;;;;;;;21.24;69.57;99043.44;1703105;84;21002;-42
2022/08/21 02:21:34;;;;;;;20.80;6.90;;;;;;;21.23;69.58;99040.52;1702495;84;21576;-42
2022/08/21 02:24:03;;;;;;;25.88;7.40;;;;;;;21.29;69.52;99040.74;1702802;84;21151;-42
2022/08/21 02:26:30;;;;;;;26.62;6.97;;;;;;;21.33;69.51;99036.50;1702555;84;21066;-42
2022/08/21 02:28:57;;;;;;;25.17;7.37;;;;;;;21.32;69.56;99030.80;1702798;84;21067;-42
2022/08/21 02:31:24;;;;;;;23.87;8.08;;;;;;;21.31;69.67;99030.63;1702816;84;20974;-42
2022/08/21 02:33:52;;;;;;;27.10;6.87;;;;;;;21.28;69.79;99026.01;1702467;84;21308;-42
2022/08/21 02:36:19;;;;;;;24.27;7.35;;;;;;;21.29;69.88;99022.05;1702648;84;21710;-42
2022/08/21 02:38:46;;;;;;;24.65;7.15;;;;;;;21.29;69.95;99022.82;1702499;84;21536;-42
2022/08/21 02:41:16;;;;;;;23.45;7.42;;;;;;;21.28;70.17;99020.49;1702429;84;21030;-42
2022/08/21 02:43:43;;;;;;;24.90;9.05;;;;;;;21.27;70.34;99025.23;1702807;84;21682;-42
2022/08/21 02:46:11;;;;;;;30.45;7.22;;;;;;;21.27;70.43;99021.09;1702652;84;21640;-42
2022/08/21 02:48:39;;;;;;;25.62;7.53;;;;;;;21.25;70.56;99020.78;1701988;84;21815;-42
2022/08/21 02:51:10;;;;;;;19.52;7.12;;;;;;;21.33;70.56;99028.22;1699561;84;20986;-43
2022/08/21 02:53:37;;;;;;;19.32;6.97;;;;;;;21.40;70.46;99023.86;1699605;84;21030;-42
2022/08/21 02:56:07;;;;;;;22.60;7.47;;;;;;;21.40;70.44;99027.99;1699541;84;21105;-42
2022/08/21 02:58:45;;;;;;;25.17;7.58;;;;;;;21.40;70.38;99027.99;1707425;84;21100;-42
2022/08/21 03:01:13;;;;;;;24.63;7.53;;;;;;;21.39;70.34;99026.47;1707462;84;21779;-42
2022/08/21 03:03:42;;;;;;;20.68;7.72;;;;;;;21.38;70.31;99024.31;1707248;84;21048;-42
2022/08/21 03:06:10;;;;;;;24.50;8.35;;;;;;;21.44;70.21;99027.30;1707894;84;21003;-42
2022/08/21 03:08:38;;;;;;;18.53;7.53;;;;;;;21.48;70.00;99030.72;1707509;84;20985;-42
2022/08/21 03:11:05;;;;;;;22.75;8.05;;;;;;;21.48;69.90;99028.73;1707502;84;21081;-42
2022/08/21 03:13:32;;;;;;;30.85;9.18;;;;;;;21.49;69.79;99033.05;1707463;84;21253;-42
2022/08/21 03:16:00;;;;;;;22.32;7.78;;;;;;;21.47;69.80;99033.30;1707553;84;21002;-42
2022/08/21 03:18:27;;;;;;;25.85;7.70;;;;;;;21.45;69.78;99038.48;1707426;84;21032;-42
2022/08/21 03:20:54;;;;;;;23.47;7.45;;;;;;;21.48;69.71;99040.37;1707226;84;21562;-42
2022/08/21 03:23:22;;;;;;;24.35;7.53;;;;;;;21.49;69.73;99041.92;1707662;84;21544;-42
2022/08/21 03:25:50;;;;;;;23.30;8.65;;;;;;;21.49;69.71;99039.94;1707302;84;21157;-42
2022/08/21 03:28:21;;;;;;;27.10;8.55;;;;;;;21.48;69.73;99040.37;1707402;84;20907;-42
2022/08/21 03:30:49;;;;;;;28.00;8.88;;;;;;;21.47;69.71;99042.36;1707636;84;21057;-42
2022/08/21 03:33:17;;;;;;;25.20;7.78;;;;;;;21.49;69.71;99048.82;1707530;84;21524;-42
2022/08/21 03:35:46;;;;;;;27.42;7.80;;;;;;;21.52;69.64;99047.93;1707799;84;21033;-42
2022/08/21 03:38:13;;;;;;;23.55;7.87;;;;;;;21.56;69.49;99052.12;1707769;84;21123;-42
2022/08/21 03:40:42;;;;;;;24.32;7.97;;;;;;;21.56;69.46;99052.73;1707574;84;21018;-42
2022/08/21 03:43:09;;;;;;;21.85;8.03;;;;;;;21.51;69.45;99058.19;1707993;84;21034;-42
2022/08/21 03:45:36;;;;;;;25.20;8.28;;;;;;;21.47;69.65;99066.41;1707575;84;20989;-42
2022/08/21 03:48:04;;;;;;;27.30;8.65;;;;;;;21.46;69.81;99063.47;1707778;84;21049;-42
2022/08/21 03:50:35;;;;;;;26.60;9.10;;;;;;;21.49;69.77;99068.91;1700515;84;21117;-42
2022/08/21 03:53:02;;;;;;;27.48;9.70;;;;;;;21.52;69.85;99070.77;1699980;84;21044;-42
2022/08/21 03:55:29;;;;;;;25.97;9.45;;;;;;;21.50;70.06;99074.56;1700214;84;21583;-42
2022/08/21 03:57:56;;;;;;;20.20;8.80;;;;;;;21.49;70.19;99077.78;1700224;84;21548;-42
2022/08/21 04:00:23;;;;;;;21.87;8.28;;;;;;;21.50;70.28;99082.06;1699953;84;20983;-42
2022/08/21 04:02:50;;;;;;;19.85;8.80;;;;;;;21.54;70.36;99080.74;1699822;84;21797;-42
2022/08/21 04:05:26;;;;;;;22.25;9.10;;;;;;;21.60;70.43;99081.75;1699703;84;21530;-42
2022/08/21 04:07:58;;;;;;;25.12;9.98;;;;;;;21.66;70.43;99085.52;1699831;84;20986;-42
2022/08/21 04:10:26;;;;;;;27.58;8.93;;;;;;;21.68;70.38;99078.96;1700235;84;21093;-42
2022/08/21 04:12:55;;;;;;;24.57;9.13;;;;;;;21.75;70.25;99084.84;1700106;84;21066;-42
2022/08/21 04:15:22;;;;;;;32.95;10.20;;;;;;;21.83;70.24;99092.31;1699981;84;21579;-42
2022/08/21 04:17:49;;;;;;;24.63;10.72;;;;;;;21.89;70.09;99083.62;1699673;84;21500;-42
2022/08/21 04:20:17;;;;;;;26.68;10.23;;;;;;;21.92;69.99;99080.00;1699853;84;21019;-42
2022/08/21 04:22:45;;;;;;;23.65;10.53;;;;;;;21.96;69.89;99081.46;1699962;84;21133;-42
2022/08/21 04:25:14;;;;;;;27.98;10.50;;;;;;;21.99;69.73;99080.56;1699945;83;21067;-42
2022/08/21 04:27:42;;;;;;;23.27;9.70;;;;;;;22.03;69.81;99091.48;1699810;84;21149;-42
2022/08/21 04:30:11;;;;;;;24.47;9.43;;;;;;;22.09;69.68;99079.45;1700264;84;21011;-42
2022/08/21 04:32:38;;;;;;;21.93;9.43;;;;;;;22.17;69.55;99077.25;1700201;84;20994;-42
2022/08/21 04:35:08;;;;;;;28.20;10.63;;;;;;;22.23;69.42;99074.07;1699805;84;21689;-42
2022/08/21 04:37:35;;;;;;;26.65;10.32;;;;;;;22.27;69.21;99080.25;1700044;84;21547;-42
2022/08/21 04:40:04;;;;;;;31.20;9.48;;;;;;;22.31;68.94;99078.77;1699854;84;21149;-42
2022/08/21 04:42:32;;;;;;;33.83;8.63;;;;;;;22.31;68.84;99077.39;1699925;84;20965;-42
2022/08/21 04:45:00;;;;;;;25.17;9.68;;;;;;;22.36;68.68;99072.69;1699991;84;21102;-42
2022/08/21 04:47:28;;;;;;;24.75;9.53;;;;;;;22.40;68.67;99069.96;1694987;84;21037;-42
2022/08/21 04:49:55;;;;;;;21.90;9.08;;;;;;;22.43;68.61;99064.91;1704066;84;21053;-42
2022/08/21 04:52:22;;;;;;;25.92;9.73;;;;;;;22.49;68.47;99062.36;1707753;84;21252;-42
2022/08/21 04:54:51;;;;;;;23.47;8.80;;;;;;;22.50;68.39;99067.45;1707308;84;20938;-42
2022/08/21 04:57:18;;;;;;;28.07;8.85;;;;;;;22.51;68.08;99073.75;1707790;84;21025;-42
2022/08/21 04:59:49;;;;;;;25.45;9.40;;;;;;;22.55;67.94;99086.83;1707599;84;21539;-42
2022/08/21 05:02:16;;;;;;;26.27;10.35;;;;;;;22.56;67.97;99080.06;1707871;84;21070;-42
2022/08/21 05:04:51;;;;;;;24.92;10.00;;;;;;;22.58;68.11;99065.20;1707695;84;23151;-42
2022/08/21 05:07:22;;;;;;;23.75;9.20;;;;;;;22.59;68.11;99062.61;1708061;84;20970;-42
2022/08/21 05:09:49;;;;;;;24.77;9.58;;;;;;;22.62;68.17;99063.08;1707803;84;20994;-42
2022/08/21 05:12:17;;;;;;;25.65;8.18;;;;;;;22.68;68.10;99063.29;1707861;84;21224;-42
2022/08/21 05:14:44;;;;;;;25.20;8.20;;;;;;;22.77;67.92;99064.16;1707791;84;21089;-42
2022/08/21 05:17:11;;;;;;;28.15;8.00;;;;;;;22.84;67.58;99063.92;1707868;84;21124;-42
2022/08/21 05:19:38;;;;;;;25.40;8.00;;;;;;;22.86;67.37;99062.84;1708004;84;21532;-42
2022/08/21 05:22:05;;;;;;;22.82;7.45;;;;;;;22.90;67.09;99063.48;1707597;84;21097;-42
2022/08/21 05:24:33;;;;;;;23.38;7.87;;;;;;;22.94;66.93;99066.14;1707479;84;21033;-42
2022/08/21 05:27:00;;;;;;;24.72;7.55;;;;;;;22.99;66.97;99061.42;1707821;84;20986;-42
2022/08/21 05:29:29;;;;;;;28.73;7.60;;;;;;;23.08;66.80;99053.80;1707381;84;23181;-42
2022/08/21 05:31:56;;;;;;;27.73;7.83;;;;;;;23.16;66.56;99057.83;1707739;84;21594;-42
2022/08/21 05:34:24;;;;;;;28.12;8.13;;;;;;;23.20;66.10;99057.08;1707716;84;21085;-42
2022/08/21 05:36:51;;;;;;;22.00;7.87;;;;;;;23.21;66.05;99053.09;1707699;84;20993;-42
2022/08/21 05:39:18;;;;;;;27.10;6.95;;;;;;;23.23;66.10;99057.58;1707575;84;21018;-42
2022/08/21 05:41:45;;;;;;;29.87;7.55;;;;;;;23.26;65.86;99061.59;1707533;84;21149;-42
2022/08/21 05:44:12;;;;;;;27.30;7.70;;;;;;;23.28;65.69;99068.06;1707628;84;20931;-42
2022/08/21 05:46:39;;;;;;;24.27;7.45;;;;;;;23.32;65.67;99070.08;1707629;84;21532;-42
2022/08/21 05:49:06;;;;;;;25.37;7.85;;;;;;;23.36;65.34;99074.86;1707091;84;21628;-43
2022/08/21 05:51:34;;;;;;;28.85;7.53;;;;;;;23.36;65.16;99071.48;1699791;84;21034;-43
2022/08/21 05:54:01;;;;;;;30.25;7.37;;;;;;;23.38;65.35;99069.66;1699742;84;21259;-42
2022/08/21 05:56:28;;;;;;;25.48;7.17;;;;;;;23.39;64.71;99080.86;1699966;84;21033;-43
2022/08/21 05:58:55;;;;;;;25.77;6.62;;;;;;;23.37;64.27;99079.17;1700028;84;21057;-43
2022/08/21 06:01:22;;;;;;;22.55;7.00;;;;;;;23.38;64.10;99079.34;1700056;84;21497;-43
2022/08/21 06:03:49;;;;;;;25.12;7.17;;;;;;;23.38;63.98;99086.26;1700068;84;21101;-43
2022/08/21 06:06:16;;;;;;;26.70;7.40;;;;;;;23.35;64.00;99082.99;1699746;84;23155;-42
2022/08/21 06:08:44;;;;;;;32.65;7.17;;;;;;;23.38;63.75;99086.26;1699563;84;21090;-43
2022/08/21 06:11:11;;;;;;;23.87;7.37;;;;;;;23.35;63.54;99087.14;1699862;84;20942;-42
2022/08/21 06:13:38;;;;;;;27.32;7.00;;;;;;;23.31;63.60;99081.75;1699927;84;20987;-42
2022/08/21 06:16:10;;;;;;;26.77;6.87;;;;;;;23.33;63.82;99081.30;1699744;84;21041;-42
2022/08/21 06:18:38;;;;;;;25.50;7.20;;;;;;;23.40;63.44;99079.64;1699246;84;21147;-42
2022/08/21 06:21:06;;;;;;;26.97;6.87;;;;;;;23.49;63.33;99082.48;1699885;84;21690;-42
2022/08/21 06:23:34;;;;;;;31.23;7.47;;;;;;;23.54;62.92;99080.52;1699651;84;21096;-42
2022/08/21 06:26:02;;;;;;;30.85;7.17;;;;;;;23.58;62.67;99082.53;1699881;84;21015;-42
2022/08/21 06:28:30;;;;;;;26.00;6.78;;;;;;;23.66;62.49;99089.96;1700092;84;21105;-42
2022/08/21 06:30:57;;;;;;;26.55;6.87;;;;;;;23.74;62.09;99087.84;1699865;84;21151;-43
2022/08/21 06:33:24;;;;;;;25.40;7.42;;;;;;;23.79;61.77;99083.09;1699692;84;21561;-42
2022/08/21 06:35:51;;;;;;;28.27;7.28;;;;;;;23.86;61.62;99081.28;1699842;84;20970;-42
2022/08/21 06:38:19;;;;;;;22.73;6.22;;;;;;;23.96;61.05;99083.63;1699912;84;21532;-42
2022/08/21 06:40:46;;;;;;;22.95;6.65;;;;;;;24.05;60.65;99082.27;1699827;84;20990;-42
2022/08/21 06:43:15;;;;;;;25.30;6.97;;;;;;;24.12;60.62;99077.81;1699988;84;21253;-43
2022/08/21 06:45:43;;;;;;;31.40;6.93;;;;;;;24.19;60.42;99074.80;1700404;84;20911;-43
2022/08/21 06:48:10;;;;;;;23.02;7.10;;;;;;;24.23;60.29;99078.80;1699982;84;21779;-43
2022/08/21 06:50:37;;;;;;;28.80;7.47;;;;;;;24.30;60.31;99079.13;1710389;83;21053;-42
2022/08/21 06:53:09;;;;;;;29.37;6.85;;;;;;;24.35;59.93;99074.38;1720716;83;21044;-42
2022/08/21 06:55:37;;;;;;;34.58;7.22;;;;;;;24.41;59.95;99066.36;1720624;83;21519;-42
2022/08/21 06:58:04;;;;;;;22.45;6.47;;;;;;;24.48;59.46;99069.45;1715559;83;21024;-42
2022/08/21 07:02:56;;;;;;;20.25;6.37;;;;;;;24.62;59.57;99069.62;1788778;79;22709;-42
2022/08/21 07:05:27;;;;;;;24.47;6.45;;;;;;;24.58;59.40;99070.39;1763111;81;21025;-42
2022/08/21 07:07:54;;;;;;;27.35;6.37;;;;;;;24.67;58.98;99073.16;1762866;81;21196;-42
2022/08/21 07:10:21;;;;;;;22.07;6.42;;;;;;;24.74;58.80;99064.39;1763120;81;20970;-42
2022/08/21 07:12:50;;;;;;;20.60;6.33;;;;;;;24.81;58.63;99068.23;1763035;81;20926;-42
2022/08/21 07:15:17;;;;;;;23.95;6.22;;;;;;;24.84;58.28;99062.52;1763288;81;20978;-42
2022/08/21 07:17:44;;;;;;;20.02;5.70;;;;;;;24.88;58.11;99063.80;1763084;81;20951;-42
2022/08/21 07:20:11;;;;;;;20.68;6.78;;;;;;;24.91;58.17;99060.09;1763039;81;23140;-42
2022/08/21 07:22:39;;;;;;;27.13;6.28;;;;;;;24.97;58.25;99066.56;1762953;81;21478;-42
2022/08/21 07:25:07;;;;;;;22.07;5.83;;;;;;;25.09;57.74;99060.06;1762975;81;21512;-42
2022/08/21 07:27:34;;;;;;;27.10;6.22;;;;;;;25.20;57.52;99068.68;1763341;81;21038;-42
2022/08/21 07:30:01;;;;;;;21.73;6.50;;;;;;;25.32;57.05;99067.72;1763124;81;21053;-42
2022/08/21 07:32:28;;;;;;;29.30;7.22;;;;;;;25.39;56.53;99059.08;1763213;81;21146;-42
2022/08/21 07:34:55;;;;;;;23.10;6.92;;;;;;;25.45;56.28;99062.77;1763164;81;21013;-42
2022/08/21 07:37:22;;;;;;;21.60;6.55;;;;;;;25.49;56.13;99064.75;1763457;81;20947;-42
2022/08/21 07:39:50;;;;;;;22.70;6.30;;;;;;;25.46;56.12;99067.06;1763210;81;20994;-42
2022/08/21 07:42:17;;;;;;;24.43;6.37;;;;;;;25.44;56.44;99066.77;1763499;81;21026;-42
2022/08/21 07:44:45;;;;;;;22.70;6.33;;;;;;;25.42;56.83;99063.69;1784885;80;21488;-42
2022/08/21 07:47:12;;;;;;;24.20;6.60;;;;;;;25.48;56.67;99062.44;1788260;80;20960;-42
2022/08/21 07:49:39;;;;;;;23.05;6.22;;;;;;;25.59;56.54;99057.81;1788322;80;21088;-42
2022/08/21 07:52:07;;;;;;;21.27;6.10;;;;;;;25.68;55.92;99060.55;1788383;80;20929;-42
2022/08/21 07:54:35;;;;;;;19.35;6.35;;;;;;;25.77;55.58;99061.89;1788312;80;21004;-42
2022/08/21 07:57:03;;;;;;;23.42;6.45;;;;;;;25.85;55.35;99060.33;1788254;80;23232;-42
2022/08/21 07:59:30;;;;;;;28.20;6.60;;;;;;;25.96;55.14;99059.17;1788625;80;21041;-42
2022/08/21 08:01:57;;;;;;;21.60;6.15;;;;;;;26.09;54.66;99061.75;1785932;80;21574;-42
2022/08/21 08:04:25;;;;;;;22.35;6.33;;;;;;;26.17;54.47;99053.98;1783337;80;20897;-42
2022/08/21 08:06:52;;;;;;;20.68;5.62;;;;;;;26.26;54.27;99054.56;1783298;80;21099;-42
2022/08/21 08:09:20;;;;;;;15.60;5.75;;;;;;;26.36;53.81;99049.86;1783279;80;21140;-42
2022/08/21 08:11:47;;;;;;;20.70;5.78;;;;;;;26.46;53.41;99047.78;1783063;80;21615;-42
2022/08/21 08:14:15;;;;;;;21.02;6.17;;;;;;;26.59;53.03;99044.74;1782863;80;21002;-42
2022/08/21 08:16:42;;;;;;;20.50;6.25;;;;;;;26.70;52.88;99042.96;1782655;80;21048;-42
2022/08/21 08:19:09;;;;;;;19.75;6.22;;;;;;;26.81;52.79;99044.58;1782862;80;20952;-42
2022/08/21 08:21:38;;;;;;;22.87;6.00;;;;;;;26.87;52.67;99040.52;1782639;80;21238;-42
2022/08/21 08:24:07;;;;;;;23.38;5.72;;;;;;;26.84;52.88;99045.62;1783027;80;21000;-42
2022/08/21 08:26:34;;;;;;;20.60;5.58;;;;;;;26.87;52.72;99043.30;1783131;80;21020;-42
2022/08/21 08:29:01;;;;;;;21.15;5.78;;;;;;;26.97;52.26;99039.18;1782914;80;21064;-42
2022/08/21 08:31:28;;;;;;;16.73;5.00;;;;;;;27.09;52.05;99037.38;1783010;80;21088;-42
2022/08/21 08:33:55;;;;;;;16.75;5.47;;;;;;;27.21;50.97;99031.52;1782839;80;21139;-42
2022/08/21 08:36:25;;;;;;;19.48;5.12;;;;;;;27.33;51.26;99037.28;1783030;80;21029;-42
2022/08/21 08:38:52;;;;;;;18.15;5.12;;;;;;;27.45;50.74;99036.22;1730531;80;20972;-42
2022/08/21 08:41:22;;;;;;;21.97;5.60;;;;;;;27.60;50.60;99033.56;1782842;80;20972;-42
2022/08/21 08:43:57;;;;;;;14.10;4.97;;;;;;;27.74;50.18;99028.47;1782841;80;21046;-42
2022/08/21 08:46:46;;;;;;;15.55;5.67;;;;;;;27.90;49.79;99032.11;1782782;80;21215;-42
2022/08/21 08:49:21;;;;;;;18.50;4.80;;;;;;;28.02;49.64;99031.02;1782938;80;21002;-42
2022/08/21 08:52:06;;;;;;;21.27;5.35;;;;;;;28.09;48.72;99022.23;1782770;80;21287;-42
2022/08/21 08:54:48;;;;;;;14.25;4.65;;;;;;;28.12;48.62;99027.52;1782617;80;20937;-42
2022/08/21 08:57:18;;;;;;;15.28;4.92;;;;;;;28.16;48.39;99030.23;1782867;80;21021;-42
2022/08/21 08:59:46;;;;;;;;;;;;;;;28.23;48.20;99022.06;1785587;80;21109;-42
2022/08/21 09:02:15;;;;;;;15.13;5.37;;;;;;;28.32;47.95;99022.69;1782812;80;20131;-42
2022/08/21 09:04:44;;;;;;;17.52;5.40;;;;;;;28.31;47.69;99019.02;1782578;80;20937;-42
2022/08/21 09:07:46;;;;;;;15.10;5.42;;;;;;;28.36;47.90;99017.69;1777602;80;21530;-42
2022/08/21 09:10:22;;;;;;;21.85;5.90;;;;;;;28.44;48.19;99018.02;1782495;80;21031;-42
2022/08/21 09:13:20;;;;;;;17.52;5.58;;;;;;;28.53;47.81;99015.85;1782386;80;21222;-42
2022/08/21 09:16:21;;;;;;;17.45;5.50;;;;;;;28.64;47.96;99018.63;1782161;80;21515;-42
2022/08/21 09:19:06;;;;;;;20.12;5.70;;;;;;;28.75;47.06;99014.60;1782350;80;20996;-42
2022/08/21 09:22:09;;;;;;;19.17;5.92;;;;;;;28.80;46.98;99020.25;1782247;80;21365;-42
2022/08/21 09:25:07;;;;;;;16.55;5.05;;;;;;;28.83;46.75;99012.28;1782495;80;21495;-42
2022/08/21 09:27:36;;;;;;;21.25;5.90;;;;;;;28.88;46.96;99011.56;1782547;80;21175;-42
2022/08/21 09:30:05;;;;;;;17.80;5.87;;;;;;;28.99;46.83;99017.89;1782767;80;21012;-42
2022/08/21 09:32:34;;;;;;;16.32;5.80;;;;;;;29.02;46.34;99007.75;1782631;80;20929;-42
2022/08/21 09:35:15;;;;;;;18.13;6.10;;;;;;;28.98;46.56;99015.59;1782737;80;21351;-43
2022/08/21 09:37:53;;;;;;;13.53;5.40;;;;;;;28.94;46.60;99013.80;1782716;80;21499;-42
2022/08/21 09:40:45;;;;;;;17.40;6.00;;;;;;;29.01;46.76;99009.01;1782718;80;21496;-42
2022/08/21 09:43:17;;;;;;;17.17;5.92;;;;;;;29.11;46.60;99005.55;1782444;80;20984;-42
2022/08/21 09:45:45;;;;;;;20.35;6.42;;;;;;;29.20;46.80;99006.00;1782704;80;21610;-42
2022/08/21 09:48:24;;;;;;;17.70;6.25;;;;;;;29.27;46.35;99004.17;1782276;80;20929;-42
2022/08/21 09:50:53;;;;;;;18.73;6.25;;;;;;;29.42;45.91;98998.48;1782796;80;21830;-42
2022/08/21 09:53:25;;;;;;;19.62;6.28;;;;;;;29.60;46.32;99004.45;1782458;80;21107;-42
2022/08/21 09:58:50;;;;;;;17.70;6.08;;;;;;;29.98;44.86;99005.98;1782270;80;21597;-42
2022/08/21 10:01:22;;;;;;;18.73;5.65;;;;;;;30.03;44.45;99008.03;1782496;80;21598;-43
2022/08/21 10:03:49;;;;;;;24.60;6.35;;;;;;;30.05;44.70;99013.91;1781546;80;21056;-42
2022/08/21 10:06:27;;;;;;;18.42;6.17;;;;;;;30.02;44.42;99014.12;1782479;80;21219;-42
2022/08/21 10:09:11;;;;;;;18.37;5.97;;;;;;;29.90;44.67;99012.55;1782688;80;20926;-43
2022/08/21 10:11:40;;;;;;;23.20;6.45;;;;;;;29.74;44.76;99011.91;1782399;80;20937;-43
2022/08/21 10:14:36;;;;;;;19.67;6.47;;;;;;;29.64;44.75;99004.22;1783067;80;20999;-42
2022/08/21 10:17:35;;;;;;;25.20;6.40;;;;;;;29.58;44.88;98997.19;1754824;80;21029;-42
2022/08/21 10:20:19;;;;;;;23.15;6.37;;;;;;;29.54;45.07;98998.69;1781817;80;21144;-42
2022/08/21 10:23:36;;;;;;;23.57;6.25;;;;;;;29.65;44.83;99000.94;1782077;80;21029;-42
2022/08/21 10:26:45;;;;;;;24.95;6.40;;;;;;;29.82;45.37;99003.84;1782499;80;20961;-42
2022/08/21 10:29:32;;;;;;;25.60;6.92;;;;;;;30.13;44.18;98991.19;1782577;80;21378;-42
2022/08/21 10:32:20;;;;;;;22.13;6.87;;;;;;;30.39;43.93;98998.04;1753904;80;21072;-42
2022/08/21 10:35:14;;;;;;;25.88;6.30;;;;;;;30.49;43.29;98996.58;1782080;80;23213;-42
2022/08/21 10:38:26;;;;;;;23.87;6.90;;;;;;;30.45;43.03;99000.86;1782482;80;21461;-42
2022/08/21 10:41:18;;;;;;;21.95;6.47;;;;;;;30.35;42.77;98998.92;1782519;80;21645;-42
2022/08/21 10:44:11;;;;;;;21.48;6.75;;;;;;;30.21;43.19;98999.85;1782491;80;20965;-42
2022/08/21 10:47:13;;;;;;;20.82;6.53;;;;;;;30.10;43.15;99001.22;1777446;80;21049;-43
2022/08/21 10:49:55;;;;;;;20.37;5.87;;;;;;;30.08;43.44;99002.34;1782420;80;23191;-42
2022/08/21 10:52:54;;;;;;;21.70;6.58;;;;;;;30.16;43.42;98996.42;1782337;80;20957;-42
2022/08/21 10:55:22;;;;;;;;;;;;;;;30.34;43.18;98995.22;1784864;80;20964;-42
2022/08/21 10:58:06;;;;;;;26.80;6.53;;;;;;;30.55;43.16;98989.57;1782450;80;20119;-42
2022/08/21 11:00:42;;;;;;;23.02;6.28;;;;;;;30.71;42.40;98997.25;1782321;80;21079;-42
2022/08/21 11:03:25;;;;;;;19.57;5.85;;;;;;;31.06;41.66;98986.40;1782354;80;21914;-43
2022/08/21 11:05:59;;;;;;;17.57;5.78;;;;;;;31.41;41.00;98981.69;1764684;80;21568;-43
2022/08/21 11:08:41;;;;;;;26.68;6.37;;;;;;;31.74;40.02;98977.32;1782426;80;20972;-43
2022/08/21 11:11:25;;;;;;;20.52;5.50;;;;;;;31.99;39.28;98980.44;1782348;80;20981;-43
2022/08/21 11:13:58;;;;;;;23.40;5.90;;;;;;;32.25;38.73;98982.27;1775039;80;21515;-42
2022/08/21 11:16:47;;;;;;;23.83;5.15;;;;;;;32.58;38.10;98984.80;1782500;80;21191;-43
2022/08/21 11:19:23;;;;;;;22.90;5.37;;;;;;;32.90;37.59;98979.50;1782168;80;21543;-43
2022/08/21 11:22:23;;;;;;;19.67;5.30;;;;;;;33.24;37.51;98972.37;1776674;80;21817;-43
2022/08/21 11:25:01;;;;;;;18.32;5.10;;;;;;;33.60;37.51;98972.39;1782073;80;20929;-43
2022/08/21 11:27:40;;;;;;;18.92;5.15;;;;;;;34.07;35.76;98972.82;1782697;80;21048;-43
2022/08/21 11:30:08;;;;;;;20.93;5.13;;;;;;;34.26;34.92;98969.41;1782543;80;21280;-43
2022/08/21 11:32:44;;;;;;;23.90;5.45;;;;;;;34.17;34.31;98969.11;1782576;80;21258;-43
2022/08/21 11:35:35;;;;;;;24.02;5.33;;;;;;;34.02;34.36;98968.14;1782442;80;21183;-43
2022/08/21 11:38:19;;;;;;;20.12;5.28;;;;;;;33.84;34.84;98968.84;1782738;80;20961;-43
2022/08/21 11:41:29;;;;;;;25.77;5.47;;;;;;;33.64;35.05;98970.72;1782486;80;21041;-43
2022/08/21 11:44:02;;;;;;;17.40;4.33;;;;;;;33.47;35.73;98965.89;1782466;80;21271;-43
2022/08/21 11:46:46;;;;;;;17.30;5.40;;;;;;;33.42;35.51;98963.89;1782522;80;20934;-43
2022/08/21 11:49:27;;;;;;;14.13;4.78;;;;;;;33.52;34.95;98965.84;1782658;80;20933;-43
2022/08/21 11:52:09;;;;;;;18.65;5.17;;;;;;;33.58;34.58;98961.57;1782373;80;21581;-43